createdAt,value
2019-02-15T00:02:11.854Z,17.67
2019-02-15T00:04:43.406Z,16.93
2019-02-15T00:07:14.882Z,17.40
2019-02-15T00:09:46.285Z,17.10
2019-02-15T00:12:17.745Z,16.62
2019-02-15T00:14:49.871Z,16.67
2019-02-15T00:17:39.006Z,17.12
2019-02-15T00:20:15.174Z,16.42
2019-02-15T00:22:46.646Z,15.88
2019-02-15T00:25:18.047Z,16.07
2019-02-15T00:27:49.499Z,16.70
2019-02-15T00:30:21.004Z,15.98
2019-02-15T00:32:52.649Z,16.15
2019-02-15T00:35:24.135Z,16.67
2019-02-15T00:37:55.662Z,15.93
2019-02-15T00:40:27.112Z,16.70
2019-02-15T00:42:58.557Z,16.85
2019-02-15T00:45:32.177Z,16.95
2019-02-15T00:48:07.184Z,16.90
2019-02-15T00:50:57.526Z,17.52
2019-02-15T00:53:49.380Z,16.60
2019-02-15T00:56:42.747Z,16.57
2019-02-15T00:59:29.674Z,17.40
2019-02-15T01:02:28.981Z,16.82
2019-02-15T01:05:19.330Z,16.05
2019-02-15T01:08:16.759Z,16.17
2019-02-15T01:11:12.947Z,16.62
2019-02-15T01:13:44.440Z,17.35
2019-02-15T01:16:15.864Z,16.50
2019-02-15T01:18:47.327Z,17.87
2019-02-15T01:21:18.797Z,16.62
2019-02-15T01:23:50.281Z,16.57
2019-02-15T01:26:37.952Z,16.32
2019-02-15T01:29:46.914Z,17.82
2019-02-15T01:32:37.191Z,17.13
2019-02-15T01:35:45.987Z,18.27
2019-02-15T01:38:34.877Z,17.85
2019-02-15T01:41:17.676Z,17.00
2019-02-15T01:44:07.975Z,18.40
2019-02-15T01:46:58.617Z,17.47
2019-02-15T01:49:30.112Z,18.20
2019-02-15T01:52:01.575Z,18.57
2019-02-15T01:54:33.002Z,19.10
2019-02-15T01:57:04.464Z,18.17
2019-02-15T01:59:36.954Z,18.20
2019-02-15T02:02:08.445Z,17.50
2019-02-15T02:04:40.044Z,19.07
2019-02-15T02:07:11.578Z,18.70
2019-02-15T02:09:44.055Z,19.20
2019-02-15T02:12:16.548Z,20.68
2019-02-15T02:14:48.096Z,19.70
2019-02-15T02:17:19.464Z,18.90
2019-02-15T02:19:50.937Z,18.87
2019-02-15T02:22:22.538Z,19.40
2019-02-15T02:24:54.132Z,18.98
2019-02-15T02:27:26.457Z,17.82
2019-02-15T02:29:57.862Z,18.87
2019-02-15T02:32:29.422Z,18.45
2019-02-15T02:35:01.745Z,18.70
2019-02-15T02:37:33.555Z,18.97
2019-02-15T02:40:05.404Z,18.20
2019-02-15T02:42:36.951Z,18.60
2019-02-15T02:45:08.708Z,19.10
2019-02-15T02:47:40.137Z,19.03
2019-02-15T02:50:11.606Z,19.57
2019-02-15T02:52:44.139Z,18.80
2019-02-15T02:55:15.562Z,20.63
2019-02-15T02:57:47.033Z,18.77
2019-02-15T03:00:18.456Z,21.73
2019-02-15T03:02:49.960Z,20.07
2019-02-15T03:05:21.870Z,19.90
2019-02-15T03:07:53.370Z,20.37
2019-02-15T03:10:25.844Z,19.83
2019-02-15T03:12:57.229Z,19.77
2019-02-15T03:15:28.678Z,20.20
2019-02-15T03:18:00.567Z,20.27
2019-02-15T03:20:31.962Z,21.77
2019-02-15T03:23:03.468Z,22.23
2019-02-15T03:25:34.874Z,21.07
2019-02-15T03:28:06.266Z,22.43
2019-02-15T03:30:37.864Z,21.90
2019-02-15T03:33:09.351Z,22.90
2019-02-15T03:35:53.673Z,21.90
2019-02-15T03:38:34.084Z,21.03
2019-02-15T03:41:08.169Z,20.10
2019-02-15T03:43:39.696Z,21.13
2019-02-15T03:46:11.157Z,22.47
2019-02-15T03:48:42.655Z,21.63
2019-02-15T03:51:14.066Z,20.67
2019-02-15T03:53:45.653Z,19.10
2019-02-15T03:56:17.061Z,19.10
2019-02-15T03:58:48.541Z,19.90
2019-02-15T04:01:19.920Z,18.90
2019-02-15T04:03:51.816Z,19.77
2019-02-15T04:06:23.734Z,20.83
2019-02-15T04:08:55.138Z,20.23
2019-02-15T04:11:26.526Z,19.10
2019-02-15T04:13:57.927Z,19.67
2019-02-15T04:16:30.413Z,19.77
2019-02-15T04:19:01.897Z,19.83
2019-02-15T04:21:33.269Z,19.40
2019-02-15T04:24:04.789Z,19.80
2019-02-15T04:26:36.172Z,21.40
2019-02-15T04:29:07.585Z,19.50
2019-02-15T04:31:38.984Z,19.23
2019-02-15T04:34:10.485Z,19.67
2019-02-15T04:36:41.993Z,19.07
2019-02-15T04:39:13.387Z,19.03
2019-02-15T04:41:44.945Z,19.03
2019-02-15T04:44:17.112Z,18.73
2019-02-15T04:46:50.060Z,18.47
2019-02-15T04:49:21.721Z,19.63
2019-02-15T04:51:53.201Z,18.37
2019-02-15T04:54:24.693Z,19.37
2019-02-15T04:56:56.193Z,18.90
2019-02-15T04:59:28.658Z,19.33
2019-02-15T05:02:00.108Z,18.30
2019-02-15T05:04:31.709Z,18.83
2019-02-15T05:07:03.117Z,18.83
2019-02-15T05:09:34.528Z,19.30
2019-02-15T05:12:06.011Z,19.57
2019-02-15T05:14:37.418Z,20.00
2019-02-15T05:17:08.884Z,20.13
2019-02-15T05:19:40.250Z,19.00
2019-02-15T05:22:11.638Z,18.97
2019-02-15T05:24:43.081Z,18.97
2019-02-15T05:27:14.497Z,18.03
2019-02-15T05:29:45.906Z,19.37
2019-02-15T05:32:17.395Z,19.47
2019-02-15T05:34:48.798Z,19.00
2019-02-15T05:37:20.374Z,19.85
2019-02-15T05:39:51.843Z,19.97
2019-02-15T05:42:23.236Z,19.33
2019-02-15T05:45:03.385Z,19.47
2019-02-15T05:47:27.981Z,19.97
2019-02-15T05:49:59.794Z,18.70
2019-02-15T05:52:31.257Z,19.80
2019-02-15T05:55:02.810Z,19.43
2019-02-15T05:57:34.251Z,19.30
2019-02-15T06:00:06.740Z,19.37
2019-02-15T06:02:38.245Z,18.20
2019-02-15T06:05:09.744Z,20.13
2019-02-15T06:07:41.223Z,18.60
2019-02-15T06:10:12.713Z,19.57
2019-02-15T06:12:44.295Z,18.80
2019-02-15T06:15:16.712Z,17.73
2019-02-15T06:17:48.374Z,18.27
2019-02-15T06:20:19.770Z,19.23
2019-02-15T06:22:51.217Z,19.37
2019-02-15T06:25:22.714Z,18.37
2019-02-15T06:27:54.270Z,20.20
2019-02-15T06:30:25.812Z,19.97
2019-02-15T06:32:57.623Z,19.13
2019-02-15T06:35:29.116Z,19.63
2019-02-15T06:38:00.506Z,18.90
2019-02-15T06:40:32.090Z,19.77
2019-02-15T06:43:03.532Z,18.97
2019-02-15T06:45:34.938Z,19.00
2019-02-15T06:48:06.431Z,19.67
2019-02-15T06:50:37.832Z,19.90
2019-02-15T06:53:10.058Z,19.87
2019-02-15T06:55:41.706Z,19.27
2019-02-15T06:58:13.088Z,18.90
2019-02-15T07:01:09.817Z,21.03
2019-02-15T07:04:06.274Z,19.50
2019-02-15T07:06:37.704Z,19.80
2019-02-15T07:09:09.108Z,20.60
2019-02-15T07:11:40.568Z,20.63
2019-02-15T07:14:11.937Z,20.00
2019-02-15T07:16:43.370Z,22.27
2019-02-15T07:19:14.806Z,20.93
2019-02-15T07:21:46.197Z,20.73
2019-02-15T07:24:17.980Z,19.50
2019-02-15T07:26:49.410Z,20.30
2019-02-15T07:29:20.841Z,20.03
2019-02-15T07:31:52.221Z,21.03
2019-02-15T07:34:23.631Z,20.03
2019-02-15T07:36:55.169Z,21.23
2019-02-15T07:39:26.619Z,20.57
2019-02-15T07:41:58.170Z,20.70
2019-02-15T07:44:29.739Z,19.97
2019-02-15T07:47:01.186Z,22.30
2019-02-15T07:49:32.627Z,21.53
2019-02-15T07:52:04.034Z,22.10
2019-02-15T07:54:35.598Z,21.53
2019-02-15T07:57:06.985Z,22.83
2019-02-15T07:59:38.347Z,22.93
2019-02-15T08:02:09.803Z,22.93
2019-02-15T08:04:41.210Z,22.50
2019-02-15T08:07:12.775Z,22.63
2019-02-15T08:09:44.149Z,22.90
2019-02-15T08:12:15.567Z,21.77
2019-02-15T08:14:47.050Z,20.63
2019-02-15T08:17:19.621Z,22.40
2019-02-15T08:19:51.099Z,22.85
2019-02-15T08:22:22.856Z,22.83
2019-02-15T08:24:54.268Z,22.37
2019-02-15T08:27:25.930Z,23.13
2019-02-15T08:29:59.174Z,23.30
2019-02-15T08:32:30.777Z,20.50
2019-02-15T08:35:02.263Z,21.13
2019-02-15T08:37:35.243Z,21.00
2019-02-15T08:40:07.562Z,21.25
2019-02-15T08:42:40.503Z,20.77
2019-02-15T08:45:13.363Z,20.77
2019-02-15T08:47:44.795Z,20.97
2019-02-15T08:50:16.324Z,20.90
2019-02-15T08:52:47.769Z,21.30
2019-02-15T08:55:19.226Z,20.70
2019-02-15T08:57:50.791Z,21.85
2019-02-15T09:00:22.252Z,21.05
2019-02-15T09:02:53.695Z,21.48
2019-02-15T09:05:25.168Z,21.87
2019-02-15T09:07:56.661Z,21.57
2019-02-15T09:10:28.062Z,21.37
2019-02-15T09:12:59.799Z,22.67
2019-02-15T09:15:31.160Z,23.70
2019-02-15T09:18:02.618Z,23.42
2019-02-15T09:20:34.150Z,23.05
2019-02-15T09:23:05.573Z,22.60
2019-02-15T09:25:37.017Z,22.30
2019-02-15T09:28:16.213Z,23.45
2019-02-15T09:30:51.576Z,23.67
2019-02-15T09:33:22.959Z,23.87
2019-02-15T09:35:54.497Z,23.35
2019-02-15T09:38:25.955Z,23.47
2019-02-15T09:40:57.323Z,25.30
2019-02-15T09:43:28.762Z,23.57
2019-02-15T09:46:00.362Z,23.60
2019-02-15T09:48:31.847Z,23.85
2019-02-15T09:51:03.231Z,24.07
2019-02-15T09:53:35.708Z,23.70
2019-02-15T09:56:07.146Z,23.70
2019-02-15T09:58:38.580Z,24.47
2019-02-15T10:01:10.232Z,24.87
2019-02-15T10:03:41.722Z,24.67
2019-02-15T10:06:13.215Z,23.83
2019-02-15T10:08:44.741Z,24.82
2019-02-15T10:11:16.392Z,24.95
2019-02-15T10:13:48.091Z,27.93
2019-02-15T10:16:28.220Z,27.65
2019-02-15T10:18:52.614Z,28.25
2019-02-15T10:21:24.063Z,28.95
2019-02-15T10:23:55.502Z,30.20
2019-02-15T10:26:26.912Z,30.70
2019-02-15T10:28:58.359Z,31.40
2019-02-15T10:31:30.138Z,31.15
2019-02-15T10:34:01.496Z,31.33
2019-02-15T10:36:33.125Z,31.07
2019-02-15T10:39:05.910Z,27.42
2019-02-15T10:41:37.603Z,27.48
2019-02-15T10:44:08.987Z,27.85
2019-02-15T10:46:42.662Z,26.15
2019-02-15T10:49:14.107Z,26.62
2019-02-15T10:51:46.417Z,26.23
2019-02-15T10:54:17.869Z,26.12
2019-02-15T10:56:49.244Z,27.50
2019-02-15T10:59:20.722Z,27.48
2019-02-15T11:01:52.278Z,26.48
2019-02-15T11:04:23.842Z,29.60
2019-02-15T11:06:55.294Z,30.27
2019-02-15T11:09:26.837Z,28.42
2019-02-15T11:11:58.227Z,26.45
2019-02-15T11:14:29.728Z,24.63
2019-02-15T11:17:03.061Z,24.85
2019-02-15T11:19:34.276Z,23.65
2019-02-15T11:22:05.800Z,24.98
2019-02-15T11:24:37.382Z,23.60
2019-02-15T11:27:08.942Z,22.42
2019-02-15T11:29:42.309Z,22.30
2019-02-15T11:32:13.875Z,23.65
2019-02-15T11:34:45.550Z,22.15
2019-02-15T11:37:16.927Z,21.62
2019-02-15T11:39:48.403Z,22.58
2019-02-15T11:42:19.855Z,23.52
2019-02-15T11:44:51.329Z,23.87
2019-02-15T11:47:22.785Z,23.10
2019-02-15T11:49:54.233Z,22.42
2019-02-15T11:52:25.655Z,22.40
2019-02-15T11:54:57.209Z,21.68
2019-02-15T11:57:28.704Z,21.65
2019-02-15T12:00:00.727Z,25.55
2019-02-15T12:02:32.445Z,22.10
2019-02-15T12:05:04.101Z,22.73
2019-02-15T12:07:35.817Z,23.57
2019-02-15T12:10:07.458Z,24.23
2019-02-15T12:12:39.158Z,22.65
2019-02-15T12:15:10.743Z,25.02
2019-02-15T12:17:42.208Z,24.73
2019-02-15T12:20:13.768Z,24.05
2019-02-15T12:22:45.381Z,27.77
2019-02-15T12:25:16.989Z,25.17
2019-02-15T12:27:48.608Z,26.23
2019-02-15T12:30:20.165Z,27.20
2019-02-15T12:32:51.655Z,23.75
2019-02-15T12:35:23.108Z,25.08
2019-02-15T12:37:54.636Z,25.77
2019-02-15T12:40:26.175Z,26.20
2019-02-15T12:42:57.745Z,24.95
2019-02-15T12:45:29.425Z,26.30
2019-02-15T12:48:00.886Z,25.75
2019-02-15T12:50:32.438Z,27.37
2019-02-15T12:53:03.871Z,24.75
2019-02-15T12:55:36.414Z,27.67
2019-02-15T12:58:08.092Z,27.32
2019-02-15T13:00:42.407Z,26.87
2019-02-15T13:03:13.843Z,26.02
2019-02-15T13:05:45.226Z,27.63
2019-02-15T13:08:16.724Z,27.95
2019-02-15T13:10:48.596Z,28.23
2019-02-15T13:13:20.048Z,25.97
2019-02-15T13:15:53.034Z,26.50
2019-02-15T13:18:24.391Z,26.15
2019-02-15T13:20:55.832Z,25.60
2019-02-15T13:23:27.894Z,26.93
2019-02-15T13:26:08.228Z,27.50
2019-02-15T13:28:32.596Z,28.57
2019-02-15T13:31:03.997Z,27.25
2019-02-15T13:33:35.425Z,26.60
2019-02-15T13:36:06.937Z,26.93
2019-02-15T13:38:38.439Z,26.10
2019-02-15T13:41:10.240Z,28.55
2019-02-15T13:43:44.010Z,26.65
2019-02-15T13:46:15.499Z,26.57
2019-02-15T13:48:46.875Z,27.67
2019-02-15T13:51:18.299Z,28.00
2019-02-15T13:53:49.696Z,29.02
2019-02-15T13:56:21.139Z,27.17
2019-02-15T13:58:52.599Z,29.52
2019-02-15T14:01:24.379Z,29.25
2019-02-15T14:03:55.800Z,29.70
2019-02-15T14:06:27.348Z,30.85
2019-02-15T14:08:58.742Z,38.92
2019-02-15T14:11:30.243Z,29.45
2019-02-15T14:14:01.733Z,27.75
2019-02-15T14:16:33.250Z,28.25
2019-02-15T14:19:04.808Z,29.15
2019-02-15T14:21:44.156Z,29.72
2019-02-15T14:24:09.480Z,29.92
2019-02-15T14:26:40.979Z,30.43
2019-02-15T14:29:12.410Z,29.57
2019-02-15T14:31:43.927Z,30.55
2019-02-15T14:34:15.443Z,28.85
2019-02-15T14:36:46.903Z,31.42
2019-02-15T14:39:18.470Z,29.90
2019-02-15T14:41:49.994Z,29.85
2019-02-15T14:44:22.582Z,28.62
2019-02-15T14:46:54.043Z,30.00
2019-02-15T14:49:25.490Z,29.55
2019-02-15T14:51:57.008Z,28.90
2019-02-15T14:54:28.451Z,29.52
2019-02-15T14:56:59.892Z,31.70
2019-02-15T14:59:43.151Z,33.23
2019-02-15T15:02:17.583Z,30.27
2019-02-15T15:04:49.086Z,31.52
2019-02-15T15:07:20.766Z,30.37
2019-02-15T15:09:53.110Z,31.10
2019-02-15T15:12:24.731Z,30.45
2019-02-15T15:14:59.467Z,31.40
2019-02-15T15:17:31.314Z,30.55
2019-02-15T15:20:02.876Z,29.63
2019-02-15T15:22:36.949Z,29.05
2019-02-15T15:25:14.828Z,31.12
2019-02-15T15:27:46.679Z,32.23
2019-02-15T15:30:18.408Z,32.58
2019-02-15T15:32:50.067Z,31.75
2019-02-15T15:35:22.758Z,29.63
2019-02-15T15:37:54.230Z,30.85
2019-02-15T15:40:26.075Z,31.10
2019-02-15T15:42:57.687Z,33.23
2019-02-15T15:45:29.122Z,33.92
2019-02-15T15:48:00.777Z,33.67
2019-02-15T15:50:32.534Z,32.98
2019-02-15T15:53:04.319Z,36.37
2019-02-15T15:55:36.036Z,35.60
2019-02-15T15:58:09.152Z,37.57
2019-02-15T16:00:44.621Z,40.17
2019-02-15T16:03:19.454Z,42.50
2019-02-15T16:06:23.866Z,46.92
2019-02-15T16:08:49.125Z,44.53
2019-02-15T16:11:28.909Z,61.45
2019-02-15T16:14:16.173Z,59.73
2019-02-15T16:16:59.594Z,73.72
2019-02-15T16:19:40.384Z,64.60
2019-02-15T16:22:12.730Z,54.80
2019-02-15T16:24:46.071Z,55.85
2019-02-15T16:27:18.809Z,54.03
2019-02-15T16:29:50.338Z,57.70
2019-02-15T16:32:31.133Z,56.77
2019-02-15T16:35:03.214Z,63.40
2019-02-15T16:38:37.649Z,59.30
2019-02-15T16:40:40.528Z,56.58
2019-02-15T16:43:12.390Z,48.13
2019-02-15T16:45:45.942Z,39.15
2019-02-15T16:48:19.287Z,37.53
2019-02-15T16:50:59.294Z,42.50
2019-02-15T16:53:32.366Z,40.10
2019-02-15T16:56:09.745Z,42.78
2019-02-15T16:58:43.131Z,49.40
2019-02-15T17:01:15.173Z,42.50
2019-02-15T17:03:56.443Z,43.25
2019-02-15T17:06:29.945Z,43.95
2019-02-15T17:09:09.571Z,45.40
2019-02-15T17:11:41.922Z,77.45
2019-02-15T17:14:24.942Z,74.75
2019-02-15T17:20:14.601Z,90.93
2019-02-15T17:22:48.172Z,79.17
2019-02-15T17:28:42.596Z,67.87
2019-02-15T17:31:28.773Z,72.72
2019-02-15T17:34:14.513Z,68.40
2019-02-15T17:36:55.227Z,62.87
2019-02-15T17:39:23.500Z,70.80
2019-02-15T17:41:55.924Z,68.97
2019-02-15T17:44:32.449Z,65.97
2019-02-15T17:47:04.533Z,74.93
2019-02-15T17:49:47.078Z,62.98
2019-02-15T17:52:18.944Z,69.35
2019-02-15T17:54:53.974Z,57.83
2019-02-15T17:57:26.124Z,46.48
2019-02-15T17:59:59.033Z,52.13
2019-02-15T18:02:41.843Z,51.43
2019-02-15T18:05:21.849Z,42.93
2019-02-15T18:07:54.054Z,46.60
2019-02-15T18:10:25.716Z,45.25
2019-02-15T18:12:57.374Z,46.97
2019-02-15T18:15:29.311Z,48.98
2019-02-15T18:18:02.930Z,60.10
2019-02-15T18:20:34.753Z,78.87
2019-02-15T18:23:06.558Z,62.97
2019-02-15T18:25:38.211Z,66.63
2019-02-15T18:28:13.152Z,63.70
2019-02-15T18:30:47.219Z,62.87
2019-02-15T18:33:18.837Z,55.87
2019-02-15T18:35:51.678Z,49.00
2019-02-15T18:38:23.586Z,41.10
2019-02-15T18:40:56.598Z,37.97
2019-02-15T18:43:28.320Z,38.80
2019-02-15T18:46:08.189Z,33.00
2019-02-15T18:48:39.812Z,30.07
2019-02-15T18:51:11.541Z,29.70
2019-02-15T18:53:50.685Z,26.80
2019-02-15T18:56:27.082Z,25.67
2019-02-15T18:58:58.564Z,26.00
2019-02-15T19:01:30.208Z,24.45
2019-02-15T19:04:02.774Z,25.10
2019-02-15T19:06:35.751Z,24.13
2019-02-15T19:09:08.040Z,24.67
2019-02-15T19:11:39.896Z,25.70
2019-02-15T19:14:11.593Z,52.23
2019-02-15T19:16:43.221Z,118.33
2019-02-15T19:19:14.996Z,152.83
2019-02-15T19:21:47.669Z,154.93
2019-02-15T19:24:19.881Z,135.17
2019-02-15T19:26:51.717Z,107.03
2019-02-15T19:29:23.276Z,93.50
2019-02-15T19:31:56.170Z,81.63
2019-02-15T19:34:34.719Z,78.97
2019-02-15T19:37:06.583Z,70.60
2019-02-15T19:39:39.475Z,66.97
2019-02-15T19:42:17.856Z,64.73
2019-02-15T19:44:49.712Z,62.90
2019-02-15T19:47:21.337Z,61.37
2019-02-15T19:49:53.023Z,58.50
2019-02-15T19:52:24.884Z,58.53
2019-02-15T19:54:59.006Z,54.67
2019-02-15T19:57:30.852Z,50.43
2019-02-15T20:00:10.837Z,45.23
2019-02-15T20:02:44.819Z,32.67
2019-02-15T20:05:18.911Z,34.77
2019-02-15T20:07:50.811Z,35.13
2019-02-15T20:10:22.577Z,33.07
2019-02-15T20:12:54.241Z,29.60
2019-02-15T20:15:26.717Z,28.30
2019-02-15T20:17:58.468Z,34.80
2019-02-15T20:20:30.227Z,25.10
2019-02-15T20:23:04.681Z,23.07
2019-02-15T20:25:37.484Z,23.13
2019-02-15T20:28:16.588Z,25.00
2019-02-15T20:30:48.461Z,29.13
2019-02-15T20:33:21.431Z,29.07
2019-02-15T20:35:52.955Z,29.30
2019-02-15T20:38:24.783Z,26.30
2019-02-15T20:40:56.277Z,27.60
2019-02-15T20:43:27.916Z,28.63
2019-02-15T20:45:59.410Z,32.03
2019-02-15T20:48:30.944Z,36.80
2019-02-15T20:51:02.367Z,35.93
2019-02-15T20:53:33.736Z,38.20
2019-02-15T20:56:05.269Z,37.67
2019-02-15T20:58:36.852Z,36.97
2019-02-15T21:01:08.481Z,35.43
2019-02-15T21:03:39.958Z,34.37
2019-02-15T21:06:11.386Z,32.37
2019-02-15T21:08:42.804Z,29.90
2019-02-15T21:11:14.382Z,25.43
2019-02-15T21:13:45.952Z,23.87
2019-02-15T21:16:17.535Z,22.17
2019-02-15T21:18:48.948Z,22.10
2019-02-15T21:21:20.345Z,22.80
2019-02-15T21:23:51.934Z,31.90
2019-02-15T21:26:23.558Z,34.57
2019-02-15T21:28:56.113Z,48.07
2019-02-15T21:31:27.713Z,49.80
2019-02-15T21:33:59.181Z,43.57
2019-02-15T21:36:31.070Z,40.87
2019-02-15T21:39:03.151Z,40.53
2019-02-15T21:41:36.749Z,44.07
2019-02-15T21:44:08.949Z,42.13
2019-02-15T21:46:40.721Z,36.03
2019-02-15T21:49:12.490Z,45.13
2019-02-15T21:51:44.189Z,37.93
2019-02-15T21:54:16.012Z,36.30
2019-02-15T21:56:47.784Z,34.57
2019-02-15T21:59:19.463Z,35.20
2019-02-15T22:01:54.243Z,41.07
2019-02-15T22:04:25.841Z,36.93
2019-02-15T22:06:57.486Z,37.23
2019-02-15T22:09:28.985Z,35.53
2019-02-15T22:12:00.514Z,36.40
2019-02-15T22:14:32.039Z,37.20
2019-02-15T22:17:03.571Z,38.07
2019-02-15T22:19:35.119Z,37.00
2019-02-15T22:22:06.844Z,33.53
2019-02-15T22:24:38.549Z,35.57
2019-02-15T22:27:10.282Z,34.50
2019-02-15T22:29:41.733Z,34.87
2019-02-15T22:32:13.289Z,35.07
2019-02-15T22:34:44.742Z,34.93
2019-02-15T22:37:16.215Z,34.70
2019-02-15T22:39:47.618Z,37.37
2019-02-15T22:42:19.145Z,38.30
2019-02-15T22:44:50.513Z,36.53
2019-02-15T22:47:21.969Z,32.37
2019-02-15T22:49:53.424Z,31.67
2019-02-15T22:52:26.409Z,31.13
2019-02-15T22:54:57.803Z,35.33
2019-02-15T22:57:29.232Z,36.07
2019-02-15T23:00:01.386Z,36.00
2019-02-15T23:02:35.912Z,41.67
2019-02-15T23:05:07.512Z,48.97
2019-02-15T23:07:39.025Z,46.20
2019-02-15T23:10:10.576Z,39.67
2019-02-15T23:12:42.093Z,36.67
2019-02-15T23:15:13.689Z,36.17
2019-02-15T23:17:45.159Z,35.87
2019-02-15T23:20:16.755Z,35.73
2019-02-15T23:22:48.277Z,38.23
2019-02-15T23:25:19.731Z,39.30
2019-02-15T23:27:51.286Z,40.20
2019-02-15T23:30:23.782Z,36.37
2019-02-15T23:32:55.201Z,36.73
2019-02-15T23:35:26.977Z,31.37
2019-02-15T23:37:58.814Z,28.97
2019-02-15T23:40:30.336Z,30.60
2019-02-15T23:43:01.935Z,30.03
2019-02-15T23:45:33.379Z,30.27
2019-02-15T23:48:04.907Z,29.07
2019-02-15T23:50:36.399Z,28.67
2019-02-15T23:53:08.020Z,27.90
2019-02-15T23:55:39.404Z,27.40
2019-02-15T23:58:10.975Z,27.43
